createdAt,value
2023-01-20T00:01:29.295Z,61.90
2023-01-20T00:03:57.761Z,61.57
2023-01-20T00:06:29.890Z,62.06
2023-01-20T00:08:59.683Z,61.88
2023-01-20T00:11:27.086Z,62.05
2023-01-20T00:13:56.026Z,62.48
2023-01-20T00:16:24.020Z,61.89
2023-01-20T00:18:50.934Z,62.13
2023-01-20T00:21:18.478Z,61.29
2023-01-20T00:23:46.363Z,61.48
2023-01-20T00:26:16.512Z,61.92
2023-01-20T00:28:44.716Z,62.63
2023-01-20T00:31:21.085Z,63.12
2023-01-20T00:33:49.716Z,62.86
2023-01-20T00:36:18.795Z,63.41
2023-01-20T00:38:46.065Z,62.62
2023-01-20T00:41:13.495Z,62.99
2023-01-20T00:43:40.783Z,63.56
2023-01-20T00:46:08.150Z,63.40
2023-01-20T00:48:36.108Z,63.45
2023-01-20T00:51:04.288Z,63.79
2023-01-20T00:53:31.942Z,63.96
2023-01-20T00:55:58.990Z,64.13
2023-01-20T00:58:25.973Z,63.91
2023-01-20T01:00:54.148Z,64.00
2023-01-20T01:03:21.750Z,63.85
2023-01-20T01:05:48.725Z,63.82
2023-01-20T01:08:15.636Z,63.96
2023-01-20T01:10:42.661Z,64.35
2023-01-20T01:13:10.215Z,63.51
2023-01-20T01:15:37.376Z,64.22
2023-01-20T01:18:04.433Z,64.62
2023-01-20T01:20:31.657Z,64.41
2023-01-20T01:22:58.681Z,64.61
2023-01-20T01:25:25.577Z,64.46
2023-01-20T01:27:52.455Z,64.75
2023-01-20T01:30:19.405Z,64.74
2023-01-20T01:32:47.431Z,64.57
2023-01-20T01:35:14.503Z,64.50
2023-01-20T01:37:41.531Z,64.81
2023-01-20T01:40:09.353Z,64.77
2023-01-20T01:42:36.863Z,64.72
2023-01-20T01:45:13.385Z,64.97
2023-01-20T01:47:45.764Z,64.77
2023-01-20T01:50:19.950Z,64.76
2023-01-20T01:52:51.293Z,65.13
2023-01-20T01:55:19.710Z,64.43
2023-01-20T01:57:48.115Z,65.19
2023-01-20T02:00:15.272Z,64.99
2023-01-20T02:02:43.921Z,65.03
2023-01-20T02:05:13.885Z,65.02
2023-01-20T02:07:45.034Z,64.69
2023-01-20T02:10:12.997Z,65.40
2023-01-20T02:12:41.343Z,65.19
2023-01-20T02:15:09.389Z,65.23
2023-01-20T02:18:02.664Z,64.95
2023-01-20T02:20:47.599Z,65.18
2023-01-20T02:23:32.829Z,64.49
2023-01-20T02:26:08.782Z,64.41
2023-01-20T02:29:07.982Z,65.23
2023-01-20T02:32:13.050Z,65.86
2023-01-20T02:34:46.717Z,66.81
2023-01-20T02:37:27.958Z,67.64
2023-01-20T02:40:14.388Z,67.70
2023-01-20T02:42:46.498Z,68.47
2023-01-20T02:46:03.578Z,69.47
2023-01-20T02:48:53.564Z,69.28
2023-01-20T02:51:33.597Z,69.12
2023-01-20T02:54:05.942Z,69.12
2023-01-20T02:56:34.961Z,69.12
2023-01-20T02:59:10.554Z,68.24
2023-01-20T03:01:46.015Z,68.73
2023-01-20T03:04:16.965Z,68.64
2023-01-20T03:06:51.202Z,68.51
2023-01-20T03:09:24.449Z,68.56
2023-01-20T03:11:56.675Z,68.21
2023-01-20T03:14:23.870Z,67.83
2023-01-20T03:16:51.245Z,67.46
2023-01-20T03:19:20.587Z,68.28
2023-01-20T03:21:48.552Z,68.61
2023-01-20T03:24:15.688Z,69.12
2023-01-20T03:26:42.669Z,68.85
2023-01-20T03:29:16.156Z,68.46
2023-01-20T03:31:48.279Z,68.23
2023-01-20T03:34:19.694Z,67.79
2023-01-20T03:36:47.828Z,68.01
2023-01-20T03:39:15.047Z,68.83
2023-01-20T03:42:01.152Z,68.70
2023-01-20T03:44:39.957Z,68.75
2023-01-20T03:47:35.802Z,68.65
2023-01-20T03:50:23.304Z,68.15
2023-01-20T03:53:16.433Z,68.17
2023-01-20T03:55:49.969Z,68.52
2023-01-20T03:58:22.277Z,69.12
2023-01-20T04:00:50.627Z,68.56
2023-01-20T04:03:34.062Z,68.06
2023-01-20T04:06:03.364Z,68.18
2023-01-20T04:08:39.442Z,67.89
2023-01-20T04:11:08.497Z,68.21
2023-01-20T04:13:36.023Z,68.85
2023-01-20T04:16:05.618Z,68.95
2023-01-20T04:18:32.570Z,68.58
2023-01-20T04:21:02.538Z,68.20
2023-01-20T04:23:48.143Z,68.38
2023-01-20T04:26:15.006Z,69.32
2023-01-20T04:28:41.906Z,69.58
2023-01-20T04:31:18.230Z,69.49
2023-01-20T04:33:55.873Z,69.66
2023-01-20T04:36:22.804Z,68.85
2023-01-20T04:38:49.651Z,69.09
2023-01-20T04:41:16.494Z,69.38
2023-01-20T04:43:45.270Z,69.46
2023-01-20T04:46:13.677Z,69.90
2023-01-20T04:48:40.847Z,70.24
2023-01-20T04:51:08.301Z,69.39
2023-01-20T04:53:35.241Z,69.32
2023-01-20T04:56:02.182Z,69.52
2023-01-20T04:58:29.230Z,69.95
2023-01-20T05:00:56.089Z,70.04
2023-01-20T05:03:23.029Z,70.34
2023-01-20T05:05:55.951Z,70.50
2023-01-20T05:08:23.077Z,70.00
2023-01-20T05:10:50.043Z,70.28
2023-01-20T05:13:17.013Z,71.06
2023-01-20T05:15:44.565Z,71.14
2023-01-20T05:18:11.663Z,70.70
2023-01-20T05:20:38.558Z,70.11
2023-01-20T05:23:05.663Z,69.70
2023-01-20T05:25:32.652Z,70.20
2023-01-20T05:28:00.761Z,71.00
2023-01-20T05:30:28.005Z,71.41
2023-01-20T05:32:55.058Z,71.06
2023-01-20T05:35:22.255Z,70.74
2023-01-20T05:37:52.506Z,70.34
2023-01-20T05:40:19.363Z,70.55
2023-01-20T05:42:46.358Z,71.23
2023-01-20T05:45:13.523Z,70.91
2023-01-20T05:47:40.690Z,70.72
2023-01-20T05:50:07.946Z,70.23
2023-01-20T05:52:34.874Z,69.39
2023-01-20T05:55:01.951Z,69.73
2023-01-20T05:57:28.955Z,70.04
2023-01-20T05:59:55.901Z,70.26
2023-01-20T06:02:22.884Z,69.29
2023-01-20T06:04:49.923Z,69.53
2023-01-20T06:07:16.844Z,68.80
2023-01-20T06:09:43.698Z,69.21
2023-01-20T06:12:10.545Z,69.42
2023-01-20T06:14:37.453Z,69.71
2023-01-20T06:17:04.657Z,69.42
2023-01-20T06:19:31.496Z,69.11
2023-01-20T06:21:58.470Z,68.62
2023-01-20T06:24:25.329Z,69.52
2023-01-20T06:26:52.303Z,70.57
2023-01-20T06:29:19.295Z,70.30
2023-01-20T06:31:46.801Z,70.27
2023-01-20T06:34:14.174Z,70.35
2023-01-20T06:36:41.099Z,69.56
2023-01-20T06:39:08.047Z,69.33
2023-01-20T06:41:34.888Z,70.15
2023-01-20T06:44:01.803Z,69.59
2023-01-20T06:46:29.044Z,69.29
2023-01-20T06:49:00.664Z,68.45
2023-01-20T06:51:30.338Z,69.08
2023-01-20T06:53:58.097Z,67.45
2023-01-20T06:56:25.300Z,67.54
2023-01-20T06:58:52.302Z,67.49
2023-01-20T07:01:23.272Z,66.92
2023-01-20T07:03:50.559Z,66.31
2023-01-20T07:06:38.596Z,65.51
2023-01-20T07:09:07.868Z,64.91
2023-01-20T07:11:37.669Z,64.29
2023-01-20T07:14:05.955Z,64.94
2023-01-20T07:16:33.787Z,64.54
2023-01-20T07:19:00.814Z,64.25
2023-01-20T07:21:27.910Z,63.58
2023-01-20T07:23:54.847Z,63.14
2023-01-20T07:26:23.380Z,62.81
2023-01-20T07:28:50.348Z,62.85
2023-01-20T07:31:19.641Z,63.12
2023-01-20T07:33:46.840Z,62.98
2023-01-20T07:36:15.008Z,63.15
2023-01-20T07:38:42.271Z,63.37
2023-01-20T07:41:15.940Z,62.54
2023-01-20T07:43:44.606Z,61.87
2023-01-20T07:46:12.015Z,61.62
2023-01-20T07:48:39.215Z,61.86
2023-01-20T07:51:08.828Z,61.45
2023-01-20T07:53:40.864Z,61.10
2023-01-20T07:56:12.616Z,60.83
2023-01-20T07:58:39.955Z,60.32
2023-01-20T08:01:14.061Z,59.92
2023-01-20T08:03:41.345Z,59.92
2023-01-20T08:06:11.089Z,60.18
2023-01-20T08:08:38.074Z,59.91
2023-01-20T08:11:07.104Z,59.91
2023-01-20T08:13:34.732Z,59.43
2023-01-20T08:16:04.176Z,59.74
2023-01-20T08:18:34.017Z,59.87
2023-01-20T08:21:01.895Z,60.03
2023-01-20T08:23:28.748Z,59.67
2023-01-20T08:26:00.221Z,60.46
2023-01-20T08:28:27.733Z,59.82
2023-01-20T08:30:55.784Z,59.58
2023-01-20T08:33:22.702Z,60.17
2023-01-20T08:35:49.570Z,60.39
2023-01-20T08:38:16.508Z,60.42
2023-01-20T08:40:43.895Z,59.80
2023-01-20T08:43:10.817Z,59.38
2023-01-20T08:45:37.789Z,59.94
2023-01-20T08:48:04.779Z,59.81
2023-01-20T08:50:31.700Z,59.73
2023-01-20T08:52:58.636Z,60.45
2023-01-20T08:55:25.571Z,60.92
2023-01-20T08:57:52.459Z,60.46
2023-01-20T09:00:20.019Z,60.07
2023-01-20T09:02:47.054Z,59.39
2023-01-20T09:05:15.136Z,58.92
2023-01-20T09:07:42.362Z,59.38
2023-01-20T09:10:09.745Z,59.63
2023-01-20T09:12:37.757Z,59.41
2023-01-20T09:15:07.685Z,59.14
2023-01-20T09:17:36.238Z,57.90
2023-01-20T09:20:03.264Z,57.41
2023-01-20T09:22:30.237Z,55.36
2023-01-20T09:24:57.095Z,55.74
2023-01-20T09:27:25.508Z,55.52
2023-01-20T09:29:52.366Z,54.58
2023-01-20T09:32:19.245Z,55.05
2023-01-20T09:34:46.137Z,54.19
2023-01-20T09:37:31.467Z,53.96
2023-01-20T09:40:17.388Z,53.86
2023-01-20T09:43:35.154Z,54.08
2023-01-20T10:17:22.382Z,59.04
2023-01-20T10:20:10.374Z,56.58
2023-01-20T10:22:54.185Z,55.28
2023-01-20T10:25:41.281Z,54.38
2023-01-20T10:28:12.162Z,53.75
2023-01-20T10:30:39.808Z,53.12
2023-01-20T10:33:26.417Z,52.56
2023-01-20T10:35:57.085Z,52.93
2023-01-20T10:38:43.365Z,52.36
2023-01-20T10:41:24.551Z,52.05
2023-01-20T10:43:51.639Z,50.98
2023-01-20T10:46:46.266Z,51.02
2023-01-20T10:49:47.064Z,51.09
2023-01-20T10:52:25.832Z,51.47
2023-01-20T10:55:11.539Z,52.28
2023-01-20T10:57:39.342Z,51.94
2023-01-20T11:00:17.835Z,51.90
2023-01-20T11:02:45.249Z,50.48
2023-01-20T11:05:22.466Z,50.21
2023-01-20T11:07:51.811Z,50.25
2023-01-20T11:10:24.948Z,50.07
2023-01-20T11:12:55.097Z,50.33
2023-01-20T11:15:23.455Z,49.56
2023-01-20T11:18:16.503Z,49.64
2023-01-20T11:20:51.271Z,49.14
2023-01-20T11:23:38.896Z,49.16
2023-01-20T11:26:28.164Z,48.19
2023-01-20T11:28:59.916Z,48.67
2023-01-20T11:31:49.727Z,49.15
2023-01-20T11:34:25.997Z,49.11
2023-01-20T11:37:20.362Z,48.89
2023-01-20T11:39:49.857Z,49.22
2023-01-20T11:42:25.179Z,49.97
2023-01-20T11:45:08.523Z,49.76
2023-01-20T11:47:45.037Z,50.04
2023-01-20T11:50:18.081Z,50.60
2023-01-20T11:52:47.447Z,49.87
2023-01-20T11:55:24.750Z,50.81
2023-01-20T11:57:55.969Z,50.91
2023-01-20T12:00:32.047Z,50.83
2023-01-20T12:03:23.988Z,51.59
2023-01-20T12:05:57.353Z,51.73
2023-01-20T12:08:29.376Z,52.41
2023-01-20T12:11:00.586Z,52.29
2023-01-20T12:13:56.218Z,52.25
2023-01-20T12:16:26.213Z,52.51
2023-01-20T12:19:02.249Z,53.18
2023-01-20T12:21:35.552Z,52.87
2023-01-20T12:24:42.096Z,53.49
2023-01-20T12:27:20.955Z,53.33
2023-01-20T12:29:53.523Z,53.45
2023-01-20T12:32:20.804Z,53.27
2023-01-20T12:34:47.703Z,53.81
2023-01-20T12:37:57.379Z,53.44
2023-01-20T12:40:40.342Z,53.66
2023-01-20T12:43:26.979Z,53.83
2023-01-20T12:46:06.179Z,53.88
2023-01-20T12:48:44.969Z,53.51
2023-01-20T12:51:27.277Z,54.46
2023-01-20T12:54:02.122Z,54.25
2023-01-20T12:56:52.655Z,54.84
2023-01-20T12:59:35.759Z,54.63
2023-01-20T13:02:21.233Z,55.06
2023-01-20T13:04:51.170Z,55.84
2023-01-20T13:07:42.076Z,56.12
2023-01-20T13:10:30.449Z,56.54
2023-01-20T13:13:21.546Z,57.14
2023-01-20T13:16:10.645Z,57.14
2023-01-20T13:18:47.072Z,57.20
2023-01-20T13:21:19.183Z,57.22
2023-01-20T13:23:47.540Z,57.52
2023-01-20T13:26:15.789Z,57.27
2023-01-20T13:28:53.846Z,57.44
2023-01-20T13:31:31.557Z,58.09
2023-01-20T13:34:23.186Z,58.18
2023-01-20T13:37:02.430Z,58.23
2023-01-20T13:39:40.728Z,58.53
2023-01-20T13:42:40.057Z,57.86
2023-01-20T13:45:12.941Z,58.47
2023-01-20T13:48:02.512Z,58.69
2023-01-20T13:50:38.319Z,59.46
2023-01-20T13:53:11.044Z,59.63
2023-01-20T13:55:41.780Z,59.86
2023-01-20T13:58:30.025Z,59.92
2023-01-20T14:01:03.053Z,59.57
2023-01-20T14:03:38.531Z,59.87
2023-01-20T14:06:13.301Z,60.29
2023-01-20T14:08:48.878Z,61.35
2023-01-20T14:11:19.789Z,61.68
2023-01-20T14:13:53.812Z,61.76
2023-01-20T14:16:25.571Z,62.37
2023-01-20T14:18:55.364Z,63.86
2023-01-20T14:21:26.048Z,63.77
2023-01-20T14:23:53.515Z,63.90
2023-01-20T14:26:24.972Z,64.12
2023-01-20T14:28:54.643Z,64.08
2023-01-20T14:31:23.168Z,63.53
2023-01-20T14:33:56.262Z,63.50
2023-01-20T14:36:24.946Z,63.87
2023-01-20T14:38:58.243Z,63.95
2023-01-20T14:41:30.222Z,64.31
2023-01-20T14:43:57.727Z,64.50
2023-01-20T14:46:26.458Z,64.31
2023-01-20T14:48:56.006Z,63.99
2023-01-20T14:51:23.628Z,63.92
2023-01-20T14:54:30.233Z,63.55
2023-01-20T14:56:58.756Z,64.06
2023-01-20T14:59:26.703Z,64.40
2023-01-20T15:01:55.727Z,64.05
2023-01-20T15:04:23.330Z,64.37
2023-01-20T15:06:58.268Z,64.61
2023-01-20T15:09:35.932Z,64.53
2023-01-20T15:12:36.340Z,64.83
2023-01-20T15:15:25.717Z,65.54
2023-01-20T15:18:11.111Z,66.63
2023-01-20T15:20:41.801Z,66.23
2023-01-20T15:23:36.840Z,66.31
2023-01-20T15:26:22.130Z,65.38
2023-01-20T15:28:49.243Z,66.20
2023-01-20T15:31:17.384Z,65.79
2023-01-20T15:33:44.461Z,66.43
2023-01-20T15:36:37.170Z,66.81
2023-01-20T15:39:04.129Z,66.90
2023-01-20T15:41:31.017Z,66.18
2023-01-20T15:43:57.949Z,66.87
2023-01-20T15:46:25.206Z,67.58
2023-01-20T15:48:52.214Z,69.07
2023-01-20T15:51:20.167Z,69.52
2023-01-20T15:53:47.758Z,70.16
2023-01-20T15:56:29.164Z,70.99
2023-01-20T15:58:57.047Z,72.70
2023-01-20T16:01:26.708Z,73.59
2023-01-20T16:03:57.369Z,74.37
2023-01-20T16:06:30.633Z,74.96
2023-01-20T16:08:58.463Z,75.16
2023-01-20T16:11:25.347Z,74.43
2023-01-20T16:13:52.295Z,74.43
2023-01-20T16:16:22.989Z,74.08
2023-01-20T16:18:50.133Z,73.95
2023-01-20T16:21:19.065Z,74.44
2023-01-20T16:23:46.233Z,74.22
2023-01-20T16:26:22.891Z,74.63
2023-01-20T16:28:51.148Z,74.28
2023-01-20T16:31:18.953Z,74.10
2023-01-20T16:33:46.101Z,73.96
2023-01-20T16:36:15.223Z,74.05
2023-01-20T16:38:42.499Z,74.95
2023-01-20T16:41:22.933Z,75.24
2023-01-20T16:43:51.384Z,74.70
2023-01-20T16:46:21.713Z,74.16
2023-01-20T16:48:48.889Z,73.68
2023-01-20T16:51:18.658Z,72.95
2023-01-20T16:53:45.893Z,74.34
2023-01-20T16:56:28.211Z,74.14
2023-01-20T16:59:01.615Z,73.55
2023-01-20T17:01:30.248Z,73.25
2023-01-20T17:04:02.542Z,73.10
2023-01-20T17:06:32.289Z,72.84
2023-01-20T17:09:01.448Z,74.08
2023-01-20T17:11:29.418Z,73.47
2023-01-20T17:13:57.241Z,73.32
2023-01-20T17:16:26.226Z,73.56
2023-01-20T17:18:55.581Z,73.10
2023-01-20T17:21:23.846Z,72.59
2023-01-20T17:24:02.934Z,73.35
2023-01-20T17:26:30.575Z,73.56
2023-01-20T17:29:02.333Z,73.88
2023-01-20T17:31:31.989Z,73.80
2023-01-20T17:33:58.977Z,73.89
2023-01-20T17:36:25.867Z,73.93
2023-01-20T17:38:52.815Z,73.20
2023-01-20T17:41:19.785Z,74.18
2023-01-20T17:43:46.781Z,74.83
2023-01-20T17:46:23.719Z,75.22
2023-01-20T17:48:51.070Z,75.75
2023-01-20T17:51:24.058Z,75.97
2023-01-20T17:53:51.852Z,75.76
2023-01-20T17:56:20.660Z,76.26
2023-01-20T17:58:48.683Z,76.85
2023-01-20T18:01:16.923Z,77.60
2023-01-20T18:03:45.278Z,77.83
2023-01-20T18:06:14.587Z,78.03
2023-01-20T18:08:42.835Z,78.48
2023-01-20T18:11:19.679Z,78.13
2023-01-20T18:13:47.872Z,78.79
2023-01-20T18:16:17.087Z,79.76
2023-01-20T18:18:45.334Z,79.94
2023-01-20T18:21:16.542Z,80.56
2023-01-20T18:23:44.309Z,80.47
2023-01-20T18:26:13.918Z,79.97
2023-01-20T18:28:41.850Z,79.87
2023-01-20T18:31:13.007Z,80.18
2023-01-20T18:33:45.811Z,80.64
2023-01-20T18:36:15.234Z,80.61
2023-01-20T18:38:46.201Z,80.19
2023-01-20T18:41:14.308Z,80.36
2023-01-20T18:43:41.849Z,79.53
2023-01-20T18:46:09.644Z,80.12
2023-01-20T18:48:40.559Z,80.53
2023-01-20T18:51:10.777Z,80.64
2023-01-20T18:53:37.756Z,80.59
2023-01-20T18:56:07.485Z,80.36
2023-01-20T18:58:35.319Z,79.27
2023-01-20T19:01:07.828Z,78.79
2023-01-20T19:03:35.725Z,80.21
2023-01-20T19:06:08.254Z,79.85
2023-01-20T19:08:35.208Z,80.17
2023-01-20T19:11:03.691Z,80.36
2023-01-20T19:13:30.623Z,79.93
2023-01-20T19:15:58.230Z,79.89
2023-01-20T19:18:25.804Z,79.45
2023-01-20T19:20:52.900Z,80.04
2023-01-20T19:23:20.317Z,80.57
2023-01-20T19:25:47.283Z,79.91
2023-01-20T19:28:14.585Z,80.17
2023-01-20T19:30:41.902Z,80.10
2023-01-20T19:33:12.283Z,78.99
2023-01-20T19:35:41.912Z,79.52
2023-01-20T19:38:09.207Z,80.29
2023-01-20T19:40:36.145Z,80.33
2023-01-20T19:43:03.057Z,80.48
2023-01-20T19:45:44.802Z,80.40
2023-01-20T19:48:12.485Z,79.92
2023-01-20T19:50:39.740Z,79.96
2023-01-20T19:53:06.723Z,80.26
2023-01-20T19:55:33.589Z,81.23
2023-01-20T19:58:00.440Z,81.79
2023-01-20T20:00:27.484Z,82.09
2023-01-20T20:02:54.684Z,81.73
2023-01-20T20:05:21.617Z,82.06
2023-01-20T20:07:48.624Z,81.74
2023-01-20T20:10:18.325Z,81.44
2023-01-20T20:12:45.468Z,81.93
2023-01-20T20:15:12.372Z,82.13
2023-01-20T20:17:39.306Z,81.88
2023-01-20T20:20:06.611Z,81.94
2023-01-20T20:22:33.533Z,82.12
2023-01-20T20:25:00.569Z,81.54
2023-01-20T20:27:27.475Z,80.90
2023-01-20T20:29:56.961Z,81.16
2023-01-20T20:32:26.005Z,81.37
2023-01-20T20:34:54.282Z,81.68
2023-01-20T20:37:21.219Z,81.21
2023-01-20T20:39:48.140Z,81.16
2023-01-20T20:42:15.144Z,81.15
2023-01-20T20:44:42.308Z,80.72
2023-01-20T20:47:09.199Z,79.87
2023-01-20T20:49:36.059Z,80.03
2023-01-20T20:52:02.983Z,80.21
2023-01-20T20:54:29.981Z,80.87
2023-01-20T20:56:56.949Z,81.13
2023-01-20T20:59:24.875Z,81.33
2023-01-20T21:01:52.682Z,81.46
2023-01-20T21:04:19.658Z,80.56
2023-01-20T21:06:46.594Z,80.62
2023-01-20T21:09:13.444Z,80.75
2023-01-20T21:11:42.930Z,81.58
2023-01-20T21:14:10.192Z,82.02
2023-01-20T21:16:38.020Z,81.77
2023-01-20T21:19:05.388Z,82.36
2023-01-20T21:21:32.300Z,80.92
2023-01-20T21:23:59.819Z,81.28
2023-01-20T21:26:30.503Z,82.67
2023-01-20T21:29:01.982Z,79.10
2023-01-20T21:31:31.083Z,79.75
2023-01-20T21:33:58.833Z,81.97
2023-01-20T21:36:27.828Z,83.74
2023-01-20T21:38:54.866Z,84.46
2023-01-20T21:41:22.136Z,84.78
2023-01-20T21:44:07.743Z,83.83
2023-01-20T21:46:40.446Z,83.64
2023-01-20T21:49:27.323Z,84.05
2023-01-20T21:52:14.031Z,84.02
2023-01-20T21:54:41.661Z,83.72
2023-01-20T21:57:09.198Z,84.68
2023-01-20T21:59:36.564Z,85.02
2023-01-20T22:02:03.737Z,85.22
2023-01-20T22:04:30.635Z,85.55
2023-01-20T22:06:57.875Z,83.74
2023-01-20T22:09:24.852Z,85.39
2023-01-20T22:11:51.726Z,85.15
2023-01-20T22:14:18.765Z,85.83
2023-01-20T22:16:45.739Z,85.64
2023-01-20T22:19:13.812Z,85.84
2023-01-20T22:21:41.158Z,86.56
2023-01-20T22:24:08.535Z,87.19
2023-01-20T22:26:35.541Z,86.85
2023-01-20T22:29:02.393Z,86.07
2023-01-20T22:31:30.307Z,86.14
2023-01-20T22:33:59.218Z,87.38
2023-01-20T22:36:26.157Z,87.46
2023-01-20T22:38:53.930Z,88.31
2023-01-20T22:41:21.445Z,88.08
2023-01-20T22:43:50.302Z,87.16
2023-01-20T22:46:20.187Z,86.50
2023-01-20T22:48:47.420Z,85.79
2023-01-20T22:51:22.890Z,86.00
2023-01-20T22:53:50.150Z,86.35
2023-01-20T22:56:19.885Z,86.66
2023-01-20T22:58:47.376Z,87.06
2023-01-20T23:01:17.376Z,86.17
2023-01-20T23:03:45.245Z,85.73
2023-01-20T23:06:13.021Z,85.69
2023-01-20T23:08:41.163Z,85.69
2023-01-20T23:11:14.254Z,86.08
2023-01-20T23:13:41.760Z,85.74
2023-01-20T23:16:13.797Z,85.43
2023-01-20T23:18:40.841Z,85.70
2023-01-20T23:21:07.850Z,84.78
2023-01-20T23:23:35.069Z,83.65
2023-01-20T23:26:07.567Z,83.17
2023-01-20T23:28:34.699Z,82.41
2023-01-20T23:31:09.964Z,80.64
2023-01-20T23:33:37.198Z,80.82
2023-01-20T23:36:24.891Z,81.02
2023-01-20T23:38:54.104Z,81.37
2023-01-20T23:41:21.126Z,80.85
2023-01-20T23:43:48.244Z,80.61
2023-01-20T23:46:15.221Z,78.94
2023-01-20T23:48:42.230Z,78.68
2023-01-20T23:51:09.764Z,78.19
2023-01-20T23:53:39.224Z,79.21
2023-01-20T23:56:18.447Z,78.47
2023-01-20T23:58:45.953Z,78.92
